createdAt,value
2024-04-12T00:01:49.709Z,14.60
2024-04-12T00:04:18.934Z,14.62
2024-04-12T00:06:47.644Z,14.62
2024-04-12T00:09:20.845Z,14.62
2024-04-12T00:11:55.815Z,14.62
2024-04-12T00:14:23.904Z,14.62
2024-04-12T00:16:53.741Z,14.61
2024-04-12T00:19:23.938Z,14.60
2024-04-12T00:21:54.657Z,14.59
2024-04-12T00:24:30.336Z,14.57
2024-04-12T00:27:00.319Z,14.56
2024-04-12T00:29:32.042Z,14.55
2024-04-12T00:32:05.600Z,14.54
2024-04-12T00:34:40.414Z,14.54
2024-04-12T00:37:10.194Z,14.53
2024-04-12T00:39:39.997Z,14.52
2024-04-12T00:42:09.597Z,14.50
2024-04-12T00:44:37.279Z,14.48
2024-04-12T00:47:08.737Z,14.45
2024-04-12T00:49:38.090Z,14.41
2024-04-12T00:52:08.237Z,14.38
2024-04-12T00:54:37.633Z,14.35
2024-04-12T00:57:05.122Z,14.34
2024-04-12T00:59:36.351Z,14.32
2024-04-12T01:02:10.040Z,14.29
2024-04-12T01:04:38.120Z,14.27
2024-04-12T01:07:08.276Z,14.26
2024-04-12T01:09:36.814Z,14.25
2024-04-12T01:12:08.280Z,14.25
2024-04-12T01:14:36.732Z,14.24
2024-04-12T01:17:04.224Z,14.24
2024-04-12T01:19:31.761Z,14.24
2024-04-12T01:22:01.293Z,14.23
2024-04-12T01:24:28.556Z,14.23
2024-04-12T01:26:57.308Z,14.23
2024-04-12T01:29:25.288Z,14.23
2024-04-12T01:31:55.237Z,14.23
2024-04-12T01:34:22.664Z,14.22
2024-04-12T01:36:54.045Z,14.21
2024-04-12T01:39:22.670Z,14.21
2024-04-12T01:41:49.884Z,14.22
2024-04-12T01:44:25.497Z,14.23
2024-04-12T01:46:54.115Z,14.23
2024-04-12T01:49:23.906Z,14.21
2024-04-12T01:51:51.326Z,14.20
2024-04-12T01:54:19.367Z,14.18
2024-04-12T01:56:51.967Z,14.16
2024-04-12T01:59:23.736Z,14.14
2024-04-12T02:01:51.475Z,14.12
2024-04-12T02:04:20.001Z,14.10
2024-04-12T02:06:49.482Z,14.08
2024-04-12T02:09:17.844Z,14.06
2024-04-12T02:11:46.709Z,14.05
2024-04-12T02:14:15.938Z,14.04
2024-04-12T02:16:43.568Z,14.04
2024-04-12T02:19:11.515Z,14.03
2024-04-12T02:21:40.073Z,14.03
2024-04-12T02:24:10.181Z,14.04
2024-04-12T02:26:38.583Z,14.05
2024-04-12T02:29:06.326Z,14.05
2024-04-12T02:31:36.817Z,14.05
2024-04-12T02:34:04.297Z,14.05
2024-04-12T02:36:34.541Z,14.04
2024-04-12T02:39:08.318Z,14.04
2024-04-12T02:41:39.312Z,14.04
2024-04-12T02:44:08.029Z,14.04
2024-04-12T02:46:35.904Z,14.04
2024-04-12T02:49:08.354Z,14.04
2024-04-12T02:51:35.576Z,14.04
2024-04-12T02:54:02.944Z,14.04
2024-04-12T02:56:32.886Z,14.04
2024-04-12T02:59:00.840Z,14.02
2024-04-12T03:01:28.135Z,14.02
2024-04-12T03:03:57.952Z,14.02
2024-04-12T03:06:34.029Z,14.01
2024-04-12T03:09:03.018Z,13.99
2024-04-12T03:11:36.293Z,13.98
2024-04-12T03:14:13.193Z,13.98
2024-04-12T03:16:45.901Z,13.98
2024-04-12T03:19:16.954Z,13.97
2024-04-12T03:21:45.136Z,13.96
2024-04-12T03:24:12.735Z,13.96
2024-04-12T03:26:44.761Z,13.96
2024-04-12T03:29:13.481Z,13.96
2024-04-12T03:31:41.042Z,13.97
2024-04-12T03:34:14.424Z,13.97
2024-04-12T03:36:41.587Z,13.96
2024-04-12T03:39:26.360Z,13.96
2024-04-12T03:41:59.615Z,13.96
2024-04-12T03:44:34.004Z,13.96
2024-04-12T03:47:11.270Z,13.97
2024-04-12T03:49:42.447Z,13.98
2024-04-12T03:52:16.120Z,13.98
2024-04-12T03:54:47.976Z,13.98
2024-04-12T03:57:16.749Z,13.98
2024-04-12T03:59:47.251Z,13.98
2024-04-12T04:02:17.282Z,13.98
2024-04-12T04:04:46.978Z,13.98
2024-04-12T04:07:17.183Z,13.98
2024-04-12T04:09:45.191Z,13.98
2024-04-12T04:12:17.291Z,13.98
2024-04-12T04:14:50.826Z,13.97
2024-04-12T04:17:19.925Z,13.97
2024-04-12T04:19:47.459Z,13.97
2024-04-12T04:22:41.069Z,13.97
2024-04-12T04:25:10.316Z,13.96
2024-04-12T04:27:38.594Z,13.96
2024-04-12T04:30:07.656Z,13.96
2024-04-12T04:32:35.254Z,13.96
2024-04-12T04:35:10.866Z,13.95
2024-04-12T04:37:39.871Z,13.95
2024-04-12T04:40:21.660Z,13.95
2024-04-12T04:42:51.757Z,13.96
2024-04-12T04:45:20.941Z,13.96
2024-04-12T04:47:51.139Z,13.96
2024-04-12T04:50:21.070Z,13.96
2024-04-12T04:52:48.702Z,13.96
2024-04-12T04:55:16.063Z,13.96
2024-04-12T04:57:48.663Z,13.97
2024-04-12T05:00:24.048Z,13.97
2024-04-12T05:02:54.540Z,13.98
2024-04-12T05:05:28.996Z,13.98
2024-04-12T05:07:58.979Z,13.99
2024-04-12T05:10:35.888Z,14.00
2024-04-12T05:13:07.967Z,14.02
2024-04-12T05:15:42.516Z,14.03
2024-04-12T05:18:13.921Z,14.05
2024-04-12T05:20:43.168Z,14.06
2024-04-12T05:23:15.894Z,14.07
2024-04-12T05:25:44.814Z,14.08
2024-04-12T05:28:13.769Z,14.09
2024-04-12T05:30:45.870Z,14.09
2024-04-12T05:33:17.715Z,14.09
2024-04-12T05:35:46.830Z,14.09
2024-04-12T05:38:14.124Z,14.09
2024-04-12T05:40:53.170Z,14.10
2024-04-12T05:43:23.057Z,14.12
2024-04-12T05:45:52.210Z,14.15
2024-04-12T05:48:24.442Z,14.16
2024-04-12T05:50:59.367Z,14.18
2024-04-12T05:53:33.899Z,14.19
2024-04-12T05:56:21.615Z,14.20
2024-04-12T05:58:53.380Z,14.21
2024-04-12T06:01:26.028Z,14.23
2024-04-12T06:03:56.305Z,14.26
2024-04-12T06:06:24.564Z,14.28
2024-04-12T06:08:53.890Z,14.29
2024-04-12T06:11:22.827Z,14.30
2024-04-12T06:13:55.040Z,14.32
2024-04-12T06:16:22.601Z,14.33
2024-04-12T06:18:52.504Z,14.35
2024-04-12T06:21:20.400Z,14.35
2024-04-12T06:23:50.573Z,14.37
2024-04-12T06:26:18.116Z,14.38
2024-04-12T06:28:45.926Z,14.40
2024-04-12T06:31:21.273Z,14.42
2024-04-12T06:33:50.908Z,14.44
2024-04-12T06:36:18.913Z,14.46
2024-04-12T06:38:46.404Z,14.50
2024-04-12T06:41:16.865Z,14.54
2024-04-12T06:43:44.287Z,14.57
2024-04-12T06:46:13.175Z,14.60
2024-04-12T06:48:41.623Z,14.63
2024-04-12T06:51:13.957Z,14.67
2024-04-12T06:53:46.273Z,14.71
2024-04-12T06:56:21.524Z,14.75
2024-04-12T06:58:49.949Z,14.78
2024-04-12T07:01:23.668Z,14.80
2024-04-12T07:03:53.932Z,14.82
2024-04-12T07:06:21.734Z,14.84
2024-04-12T07:08:52.409Z,14.87
2024-04-12T07:11:22.650Z,14.88
2024-04-12T07:13:54.808Z,14.89
2024-04-12T07:16:22.698Z,14.91
2024-04-12T07:18:53.363Z,14.94
2024-04-12T07:21:24.574Z,14.98
2024-04-12T07:23:52.949Z,15.01
2024-04-12T07:26:28.563Z,15.06
2024-04-12T07:29:03.279Z,15.11
2024-04-12T07:31:36.281Z,15.16
2024-04-12T07:34:06.814Z,15.21
2024-04-12T07:36:35.769Z,15.27
2024-04-12T07:39:05.994Z,15.31
2024-04-12T07:41:39.152Z,15.35
2024-04-12T07:44:06.706Z,15.38
2024-04-12T07:46:35.265Z,15.41
2024-04-12T07:49:08.677Z,15.43
2024-04-12T07:51:40.775Z,15.45
2024-04-12T07:54:13.741Z,15.46
2024-04-12T07:56:44.943Z,15.49
2024-04-12T07:59:29.062Z,15.52
2024-04-12T08:01:59.267Z,15.57
2024-04-12T08:04:30.464Z,15.61
2024-04-12T08:06:58.040Z,15.64
2024-04-12T08:09:36.446Z,15.69
2024-04-12T08:12:25.024Z,15.75
2024-04-12T08:15:08.703Z,15.79
2024-04-12T08:17:41.499Z,15.82
2024-04-12T08:20:15.723Z,15.86
2024-04-12T08:22:44.961Z,15.90
2024-04-12T08:25:20.095Z,15.94
2024-04-12T08:27:48.491Z,15.98
2024-04-12T08:30:21.546Z,16.02
2024-04-12T08:32:52.988Z,16.08
2024-04-12T08:35:21.425Z,16.13
2024-04-12T08:37:53.040Z,16.17
2024-04-12T08:40:26.453Z,16.24
2024-04-12T08:43:11.722Z,16.31
2024-04-12T08:45:45.051Z,16.39
2024-04-12T08:48:14.182Z,16.45
2024-04-12T08:50:42.965Z,16.51
2024-04-12T08:53:18.981Z,16.57
2024-04-12T08:55:47.218Z,16.63
2024-04-12T08:58:22.671Z,16.70
2024-04-12T09:00:55.181Z,16.80
2024-04-12T09:03:32.087Z,16.87
2024-04-12T09:05:59.625Z,16.94
2024-04-12T09:08:32.977Z,17.02
2024-04-12T09:11:04.976Z,17.11
2024-04-12T09:13:34.848Z,17.22
2024-04-12T09:16:05.209Z,17.32
2024-04-12T09:18:46.002Z,17.42
2024-04-12T09:21:25.900Z,17.50
2024-04-12T09:23:58.751Z,17.56
2024-04-12T09:26:27.193Z,17.62
2024-04-12T09:29:10.462Z,17.66
2024-04-12T09:31:59.422Z,17.73
2024-04-12T09:34:36.831Z,17.82
2024-04-12T09:37:28.649Z,17.88
2024-04-12T09:40:04.190Z,17.91
2024-04-12T09:42:47.378Z,17.93
2024-04-12T09:45:20.977Z,17.95
2024-04-12T09:48:12.402Z,17.96
2024-04-12T09:51:01.284Z,17.99
2024-04-12T09:53:49.635Z,18.02
2024-04-12T09:56:36.293Z,18.03
2024-04-12T09:59:32.415Z,18.03
2024-04-12T10:02:19.450Z,18.05
2024-04-12T10:05:08.840Z,18.09
2024-04-12T10:07:57.887Z,18.16
2024-04-12T10:10:49.435Z,18.24
2024-04-12T10:13:37.147Z,18.31
2024-04-12T10:16:23.422Z,18.34
2024-04-12T10:19:32.728Z,18.36
2024-04-12T10:22:30.762Z,18.40
2024-04-12T10:25:17.519Z,18.44
2024-04-12T10:28:10.278Z,18.47
2024-04-12T10:31:03.702Z,18.49
2024-04-12T10:33:50.129Z,18.53
2024-04-12T10:36:44.210Z,18.56
2024-04-12T10:39:14.553Z,18.57
2024-04-12T10:41:46.816Z,18.56
2024-04-12T10:44:14.392Z,18.57
2024-04-12T10:46:48.989Z,18.60
2024-04-12T10:49:16.356Z,18.67
2024-04-12T10:51:43.629Z,18.73
2024-04-12T10:54:25.321Z,18.80
2024-04-12T10:56:56.919Z,18.88
2024-04-12T10:59:29.776Z,18.95
2024-04-12T11:02:01.806Z,19.02
2024-04-12T11:04:36.489Z,19.08
2024-04-12T11:07:04.130Z,19.14
2024-04-12T11:09:39.838Z,19.19
2024-04-12T11:12:13.911Z,19.22
2024-04-12T11:14:51.682Z,19.24
2024-04-12T11:17:37.797Z,19.24
2024-04-12T11:20:31.670Z,19.24
2024-04-12T11:23:27.270Z,19.24
2024-04-12T11:26:14.413Z,19.22
2024-04-12T11:29:00.496Z,19.20
2024-04-12T11:31:40.485Z,19.20
2024-04-12T11:34:12.180Z,19.22
2024-04-12T11:36:41.356Z,19.27
2024-04-12T11:39:25.020Z,19.36
2024-04-12T11:41:58.316Z,19.50
2024-04-12T11:44:25.629Z,19.60
2024-04-12T11:47:07.001Z,19.64
2024-04-12T11:49:46.938Z,19.68
2024-04-12T11:52:17.997Z,19.70
2024-04-12T11:55:00.827Z,19.71
2024-04-12T11:57:34.141Z,19.70
2024-04-12T12:00:02.383Z,19.68
2024-04-12T12:02:45.574Z,19.67
2024-04-12T12:05:19.015Z,19.68
2024-04-12T12:07:50.566Z,19.70
2024-04-12T12:10:17.849Z,19.71
2024-04-12T12:12:45.570Z,19.74
2024-04-12T12:15:16.117Z,19.76
2024-04-12T12:17:43.592Z,19.77
2024-04-12T12:20:11.493Z,19.77
2024-04-12T12:22:39.754Z,19.80
2024-04-12T12:25:09.221Z,19.82
2024-04-12T12:27:36.554Z,19.83
2024-04-12T12:30:15.135Z,19.85
2024-04-12T12:32:45.997Z,19.87
2024-04-12T12:35:23.887Z,19.88
2024-04-12T12:37:53.204Z,19.91
2024-04-12T12:40:22.693Z,19.93
2024-04-12T12:42:53.592Z,19.98
2024-04-12T12:45:21.584Z,20.05
2024-04-12T12:47:49.414Z,20.17
2024-04-12T12:50:25.564Z,20.31
2024-04-12T12:52:53.083Z,20.42
2024-04-12T12:55:29.927Z,20.48
2024-04-12T12:58:23.370Z,20.53
2024-04-12T13:00:50.810Z,20.56
2024-04-12T13:03:27.318Z,20.58
2024-04-12T13:05:59.556Z,20.57
2024-04-12T13:08:28.094Z,20.55
2024-04-12T13:10:58.689Z,20.54
2024-04-12T13:13:27.966Z,20.53
2024-04-12T13:15:59.484Z,20.52
2024-04-12T13:18:33.164Z,20.51
2024-04-12T13:21:00.836Z,20.48
2024-04-12T13:23:28.772Z,20.46
2024-04-12T13:25:59.070Z,20.42
2024-04-12T13:28:26.484Z,20.38
2024-04-12T13:30:53.561Z,20.34
2024-04-12T13:33:21.262Z,20.31
2024-04-12T13:35:53.641Z,20.28
2024-04-12T13:38:21.447Z,20.25
2024-04-12T13:40:50.881Z,20.23
2024-04-12T13:43:18.455Z,20.22
2024-04-12T13:46:07.365Z,20.23
2024-04-12T13:48:54.698Z,20.23
2024-04-12T13:51:30.529Z,20.23
2024-04-12T13:53:59.559Z,20.24
2024-04-12T13:56:28.100Z,20.27
2024-04-12T13:59:12.826Z,20.30
2024-04-12T14:01:42.809Z,20.35
2024-04-12T14:04:19.912Z,20.40
2024-04-12T14:06:48.591Z,20.46
2024-04-12T14:09:24.374Z,20.52
2024-04-12T14:11:55.715Z,20.56
2024-04-12T14:14:24.474Z,20.58
2024-04-12T14:16:53.215Z,20.59
2024-04-12T14:19:21.662Z,20.58
2024-04-12T14:21:58.851Z,20.56
2024-04-12T14:24:45.937Z,20.55
2024-04-12T14:27:13.998Z,20.55
2024-04-12T14:29:41.599Z,20.55
2024-04-12T14:32:11.578Z,20.55
2024-04-12T14:34:46.887Z,20.55
2024-04-12T14:37:22.703Z,20.55
2024-04-12T14:39:54.514Z,20.57
2024-04-12T14:42:22.221Z,20.57
2024-04-12T14:44:52.215Z,20.58
2024-04-12T14:47:22.290Z,20.59
2024-04-12T14:49:49.954Z,20.61
2024-04-12T14:52:17.365Z,20.64
2024-04-12T14:54:44.655Z,20.66
2024-04-12T14:57:19.492Z,20.65
2024-04-12T14:59:47.460Z,20.64
2024-04-12T15:02:16.244Z,20.61
2024-04-12T15:05:04.883Z,20.58
2024-04-12T15:07:50.601Z,20.52
2024-04-12T15:10:36.256Z,20.48
2024-04-12T15:13:22.324Z,20.43
2024-04-12T15:16:08.179Z,20.38
2024-04-12T15:18:53.795Z,20.35
2024-04-12T15:21:39.785Z,20.32
2024-04-12T15:24:25.523Z,20.27
2024-04-12T15:27:11.788Z,20.25
2024-04-12T15:29:57.777Z,20.23
2024-04-12T15:32:43.827Z,20.20
2024-04-12T15:35:29.651Z,20.16
2024-04-12T15:38:15.577Z,20.09
2024-04-12T15:41:01.603Z,20.01
2024-04-12T15:43:49.444Z,19.95
2024-04-12T15:46:35.527Z,19.91
2024-04-12T15:49:08.856Z,19.89
2024-04-12T15:51:39.844Z,19.86
2024-04-12T15:54:08.455Z,19.84
2024-04-12T15:56:35.907Z,19.82
2024-04-12T15:59:21.894Z,19.80
2024-04-12T16:02:08.027Z,19.77
2024-04-12T16:04:53.920Z,19.76
2024-04-12T16:07:39.793Z,19.75
2024-04-12T16:10:26.090Z,19.73
2024-04-12T16:12:53.443Z,19.71
2024-04-12T16:15:20.891Z,19.70
2024-04-12T16:17:48.232Z,19.70
2024-04-12T16:20:16.664Z,19.69
2024-04-12T16:22:43.852Z,19.68
2024-04-12T16:25:11.420Z,19.67
2024-04-12T16:27:38.880Z,19.65
2024-04-12T16:30:06.407Z,19.62
2024-04-12T16:32:33.590Z,19.59
2024-04-12T16:35:00.825Z,19.57
2024-04-12T16:37:29.027Z,19.54
2024-04-12T16:39:56.469Z,19.51
2024-04-12T16:42:23.818Z,19.47
2024-04-12T16:44:50.981Z,19.45
2024-04-12T16:47:18.279Z,19.41
2024-04-12T16:49:45.682Z,19.36
2024-04-12T16:52:12.864Z,19.34
2024-04-12T16:54:39.971Z,19.31
2024-04-12T16:57:07.413Z,19.28
2024-04-12T16:59:34.660Z,19.26
2024-04-12T17:02:02.134Z,19.23
2024-04-12T17:04:29.341Z,19.20
2024-04-12T17:06:56.638Z,19.18
2024-04-12T17:09:25.899Z,19.16
2024-04-12T17:11:53.299Z,19.15
2024-04-12T17:14:20.524Z,19.14
2024-04-12T17:16:49.559Z,19.13
2024-04-12T17:19:16.774Z,19.11
2024-04-12T17:21:44.050Z,19.08
2024-04-12T17:24:15.027Z,19.05
2024-04-12T17:26:43.669Z,19.01
2024-04-12T17:29:11.074Z,18.99
2024-04-12T17:31:38.767Z,18.97
2024-04-12T17:34:05.966Z,18.93
2024-04-12T17:36:33.210Z,18.90
2024-04-12T17:39:10.025Z,18.87
2024-04-12T17:43:59.974Z,18.97
2024-04-12T17:46:28.609Z,18.91
2024-04-12T17:48:59.160Z,18.92
2024-04-12T17:51:26.670Z,18.90
2024-04-12T17:53:58.539Z,18.89
2024-04-12T17:56:25.681Z,18.86
2024-04-12T17:58:52.812Z,18.82
2024-04-12T18:01:22.138Z,18.78
2024-04-12T18:03:51.020Z,18.72
2024-04-12T18:06:18.434Z,18.68
2024-04-12T18:08:45.647Z,18.64
2024-04-12T18:11:13.661Z,18.60
2024-04-12T18:13:40.936Z,18.54
2024-04-12T18:16:08.137Z,18.48
2024-04-12T18:18:35.347Z,18.42
2024-04-12T18:21:07.599Z,18.38
2024-04-12T18:23:36.627Z,18.33
2024-04-12T18:26:04.048Z,18.29
2024-04-12T18:28:31.193Z,18.26
2024-04-12T18:31:00.790Z,18.22
2024-04-12T18:33:32.654Z,18.18
2024-04-12T18:36:13.171Z,18.15
2024-04-12T18:38:59.068Z,18.11
2024-04-12T18:41:44.943Z,18.07
2024-04-12T18:44:30.995Z,18.03
2024-04-12T18:46:58.279Z,17.99
2024-04-12T18:49:25.465Z,17.95
2024-04-12T18:51:53.343Z,17.92
2024-04-12T18:54:20.651Z,17.89
2024-04-12T18:56:47.932Z,17.87
2024-04-12T18:59:15.737Z,17.85
2024-04-12T19:01:44.583Z,17.83
2024-04-12T19:04:14.616Z,17.80
2024-04-12T19:06:42.071Z,17.79
2024-04-12T19:09:11.838Z,17.76
2024-04-12T19:11:39.105Z,17.74
2024-04-12T19:14:06.801Z,17.72
2024-04-12T19:16:34.090Z,17.70
2024-04-12T19:19:01.456Z,17.68
2024-04-12T19:21:29.631Z,17.66
2024-04-12T19:23:57.554Z,17.63
2024-04-12T19:26:24.972Z,17.62
2024-04-12T19:28:52.337Z,17.60
2024-04-12T19:31:19.775Z,17.58
2024-04-12T19:33:48.354Z,17.57
2024-04-12T19:36:15.695Z,17.55
2024-04-12T19:38:45.391Z,17.53
2024-04-12T19:41:15.730Z,17.51
2024-04-12T19:43:45.905Z,17.51
2024-04-12T19:46:15.763Z,17.49
2024-04-12T19:48:43.884Z,17.49
2024-04-12T19:51:11.395Z,17.48
2024-04-12T19:53:38.695Z,17.46
2024-04-12T19:56:08.098Z,17.45
2024-04-12T19:58:40.123Z,17.44
2024-04-12T20:01:11.224Z,17.43
2024-04-12T20:03:39.422Z,17.41
2024-04-12T20:06:07.404Z,17.38
2024-04-12T20:08:34.771Z,17.37
2024-04-12T20:11:07.377Z,17.36
2024-04-12T20:13:36.056Z,17.34
2024-04-12T20:16:06.218Z,17.34
2024-04-12T20:18:35.633Z,17.33
2024-04-12T20:21:05.570Z,17.32
2024-04-12T20:23:34.634Z,17.31
2024-04-12T20:26:13.259Z,17.29
2024-04-12T20:28:48.207Z,17.26
2024-04-12T20:31:24.280Z,17.24
2024-04-12T20:34:06.038Z,17.21
2024-04-12T20:36:38.328Z,17.18
2024-04-12T20:39:08.997Z,17.17
2024-04-12T20:41:43.943Z,17.14
2024-04-12T20:44:14.135Z,17.11
2024-04-12T20:46:41.369Z,17.08
2024-04-12T20:49:08.768Z,17.06
2024-04-12T20:51:36.179Z,17.04
2024-04-12T20:54:05.758Z,17.02
2024-04-12T20:56:33.494Z,17.00
2024-04-12T20:59:02.787Z,16.98
2024-04-12T21:01:33.621Z,16.96
2024-04-12T21:04:01.799Z,16.92
2024-04-12T21:06:31.929Z,16.89
2024-04-12T21:08:59.546Z,16.84
2024-04-12T21:11:27.362Z,16.80
2024-04-12T21:13:54.842Z,16.74
2024-04-12T21:16:22.265Z,16.70
2024-04-12T21:18:52.083Z,16.66
2024-04-12T21:21:19.913Z,16.62
2024-04-12T21:23:47.872Z,16.58
2024-04-12T21:26:15.307Z,16.54
2024-04-12T21:28:42.963Z,16.51
2024-04-12T21:31:10.247Z,16.48
2024-04-12T21:33:38.878Z,16.45
2024-04-12T21:36:07.286Z,16.42
2024-04-12T21:38:40.168Z,16.40
2024-04-12T21:41:07.392Z,16.38
2024-04-12T21:43:39.438Z,16.37
2024-04-12T21:46:12.508Z,16.35
2024-04-12T21:48:41.539Z,16.34
2024-04-12T21:51:10.231Z,16.34
2024-04-12T21:53:39.265Z,16.32
2024-04-12T21:56:09.263Z,16.30
2024-04-12T21:58:36.757Z,16.27
2024-04-12T22:01:09.779Z,16.25
2024-04-12T22:03:38.228Z,16.23
2024-04-12T22:06:06.861Z,16.22
2024-04-12T22:08:35.241Z,16.21
2024-04-12T22:11:09.766Z,16.20
2024-04-12T22:13:38.649Z,16.19
2024-04-12T22:16:11.451Z,16.17
2024-04-12T22:18:40.708Z,16.16
2024-04-12T22:21:13.435Z,16.15
2024-04-12T22:23:46.796Z,16.13
2024-04-12T22:26:15.898Z,16.10
2024-04-12T22:28:45.566Z,16.08
2024-04-12T22:31:18.410Z,16.05
2024-04-12T22:33:50.728Z,16.02
2024-04-12T22:36:21.125Z,15.99
2024-04-12T22:38:49.635Z,15.96
2024-04-12T22:41:17.704Z,15.93
2024-04-12T22:43:45.769Z,15.90
2024-04-12T22:46:15.256Z,15.88
2024-04-12T22:48:44.078Z,15.85
2024-04-12T22:51:22.994Z,15.82
2024-04-12T22:53:51.128Z,15.81
2024-04-12T22:56:19.096Z,15.79
2024-04-12T22:58:46.430Z,15.77
2024-04-12T23:01:13.774Z,15.75
2024-04-12T23:03:42.370Z,15.74
2024-04-12T23:06:09.557Z,15.73
2024-04-12T23:08:36.694Z,15.73
2024-04-12T23:11:06.613Z,15.71
2024-04-12T23:13:34.895Z,15.71
2024-04-12T23:16:02.965Z,15.70
2024-04-12T23:18:30.919Z,15.70
2024-04-12T23:20:58.260Z,15.68
2024-04-12T23:23:25.481Z,15.67
2024-04-12T23:25:52.713Z,15.66
2024-04-12T23:28:19.858Z,15.66
2024-04-12T23:30:48.188Z,15.65
2024-04-12T23:33:15.413Z,15.65
2024-04-12T23:35:42.655Z,15.65
2024-04-12T23:38:09.942Z,15.65
2024-04-12T23:40:37.066Z,15.65
2024-04-12T23:43:05.063Z,15.65
2024-04-12T23:45:34.329Z,15.65
2024-04-12T23:48:01.823Z,15.65
2024-04-12T23:50:29.746Z,15.65
2024-04-12T23:52:57.849Z,15.63
2024-04-12T23:55:25.134Z,15.62
2024-04-12T23:57:53.943Z,15.60
